createdAt,value
2023-05-09T00:00:25.566Z,8.52
2023-05-09T00:05:25.540Z,8.46
2023-05-09T00:10:25.528Z,8.47
2023-05-09T00:15:25.512Z,8.42
2023-05-09T00:20:25.516Z,8.37
2023-05-09T00:25:25.494Z,8.31
2023-05-09T00:30:25.493Z,8.24
2023-05-09T00:35:25.459Z,8.20
2023-05-09T00:40:25.442Z,8.18
2023-05-09T00:45:25.431Z,8.09
2023-05-09T00:50:25.402Z,8.00
2023-05-09T00:55:25.391Z,7.89
2023-05-09T01:00:25.420Z,7.84
2023-05-09T01:05:25.381Z,7.73
2023-05-09T01:10:25.341Z,7.50
2023-05-09T01:15:25.327Z,7.34
2023-05-09T01:20:25.299Z,7.21
2023-05-09T01:25:25.266Z,7.18
2023-05-09T01:30:25.249Z,7.16
2023-05-09T01:35:25.210Z,7.05
2023-05-09T01:40:25.180Z,7.07
2023-05-09T01:45:25.154Z,7.26
2023-05-09T01:50:25.144Z,7.14
2023-05-09T01:55:25.100Z,6.89
2023-05-09T02:00:25.088Z,6.73
2023-05-09T02:05:25.063Z,6.53
2023-05-09T02:10:25.070Z,6.30
2023-05-09T02:15:25.024Z,6.24
2023-05-09T02:20:24.993Z,6.16
2023-05-09T02:25:25.012Z,6.14
2023-05-09T02:30:24.945Z,6.06
2023-05-09T02:35:24.939Z,6.06
2023-05-09T02:40:24.918Z,6.03
2023-05-09T02:45:24.904Z,5.98
2023-05-09T02:50:24.877Z,5.80
2023-05-09T02:55:24.869Z,5.73
2023-05-09T03:00:24.841Z,5.55
2023-05-09T03:05:24.824Z,5.56
2023-05-09T03:10:24.801Z,5.52
2023-05-09T03:15:24.783Z,5.42
2023-05-09T03:20:24.728Z,5.29
2023-05-09T03:25:24.701Z,5.14
2023-05-09T03:30:24.661Z,4.84
2023-05-09T03:35:24.629Z,4.53
2023-05-09T03:40:24.595Z,4.44
2023-05-09T03:45:24.568Z,4.34
2023-05-09T03:50:24.563Z,4.26
2023-05-09T03:55:24.546Z,4.16
2023-05-09T04:00:24.484Z,4.24
2023-05-09T04:05:24.501Z,4.44
2023-05-09T04:10:24.405Z,4.62
2023-05-09T04:15:24.418Z,4.86
2023-05-09T04:20:24.350Z,5.12
2023-05-09T04:25:24.320Z,5.32
2023-05-09T04:30:24.287Z,5.47
2023-05-09T04:35:24.249Z,5.49
2023-05-09T04:40:25.492Z,5.62
2023-05-09T04:45:24.180Z,5.77
2023-05-09T04:50:24.176Z,6.05
2023-05-09T04:55:24.131Z,6.28
2023-05-09T05:00:24.069Z,7.00
2023-05-09T05:05:25.429Z,7.42
2023-05-09T05:10:24.030Z,7.74
2023-05-09T05:15:24.093Z,7.95
2023-05-09T05:20:24.040Z,8.14
2023-05-09T05:25:23.977Z,8.36
2023-05-09T05:30:23.933Z,8.55
2023-05-09T05:35:23.946Z,8.85
2023-05-09T05:40:23.900Z,9.10
2023-05-09T05:45:23.847Z,9.30
2023-05-09T05:50:23.915Z,9.59
2023-05-09T05:55:24.162Z,9.89
2023-05-09T06:00:23.784Z,10.04
2023-05-09T06:05:24.462Z,10.29
2023-05-09T06:10:23.734Z,10.31
2023-05-09T06:15:23.824Z,10.62
2023-05-09T06:20:23.848Z,10.70
2023-05-09T06:25:23.892Z,11.01
2023-05-09T06:30:26.846Z,11.19
2023-05-09T06:35:23.579Z,11.09
2023-05-09T06:40:23.539Z,11.24
2023-05-09T06:45:23.527Z,11.33
2023-05-09T06:50:23.494Z,11.24
2023-05-09T06:55:23.518Z,11.51
2023-05-09T07:00:23.423Z,11.56
2023-05-09T07:05:23.473Z,12.01
2023-05-09T07:10:23.362Z,12.41
2023-05-09T07:15:32.941Z,13.04
2023-05-09T07:20:23.527Z,14.16
2023-05-09T07:25:23.272Z,16.59
2023-05-09T07:30:23.242Z,17.60
2023-05-09T07:35:23.224Z,17.06
2023-05-09T07:40:23.356Z,18.93
2023-05-09T07:45:24.023Z,19.20
2023-05-09T07:50:23.093Z,18.17
2023-05-09T07:55:23.258Z,17.95
2023-05-09T08:00:23.080Z,20.40
2023-05-09T08:05:23.050Z,18.86
2023-05-09T08:10:23.399Z,20.23
2023-05-09T08:15:24.465Z,22.20
2023-05-09T08:20:22.982Z,20.98
2023-05-09T08:25:23.058Z,21.42
2023-05-09T08:30:22.969Z,20.79
2023-05-09T08:35:22.902Z,21.63
2023-05-09T08:40:22.848Z,20.78
2023-05-09T08:45:22.851Z,20.73
2023-05-09T08:50:22.808Z,21.12
2023-05-09T08:55:22.844Z,21.51
2023-05-09T09:00:23.127Z,20.30
2023-05-09T09:05:40.154Z,19.55
2023-05-09T09:10:22.694Z,21.00
2023-05-09T09:15:22.806Z,20.82
2023-05-09T09:20:22.821Z,20.40
2023-05-09T09:25:22.630Z,20.88
2023-05-09T09:30:22.787Z,20.90
2023-05-09T09:35:22.736Z,21.03
2023-05-09T09:40:22.535Z,20.58
2023-05-09T09:45:22.503Z,21.19
2023-05-09T09:50:22.597Z,21.86
2023-05-09T09:55:22.403Z,21.66
2023-05-09T10:00:22.632Z,21.34
2023-05-09T10:05:22.362Z,21.11
2023-05-09T10:10:22.303Z,21.81
2023-05-09T10:15:22.235Z,21.30
2023-05-09T10:20:22.230Z,21.40
2023-05-09T10:25:22.259Z,21.49
2023-05-09T10:30:22.393Z,21.00
2023-05-09T10:35:22.177Z,21.64
2023-05-09T10:40:22.135Z,21.53
2023-05-09T10:45:22.077Z,23.21
2023-05-09T10:50:21.983Z,21.63
2023-05-09T10:55:21.976Z,22.46
2023-05-09T11:00:21.932Z,21.64
2023-05-09T11:05:21.951Z,23.37
2023-05-09T11:10:21.916Z,22.72
2023-05-09T11:15:21.881Z,22.96
2023-05-09T11:20:21.854Z,22.48
2023-05-09T11:25:21.814Z,21.79
2023-05-09T11:30:21.787Z,22.35
2023-05-09T11:35:21.756Z,23.82
2023-05-09T11:40:22.039Z,23.64
2023-05-09T11:45:21.746Z,23.68
2023-05-09T11:50:21.815Z,23.78
2023-05-09T11:55:21.677Z,23.19
2023-05-09T12:00:21.648Z,23.63
2023-05-09T12:05:21.613Z,23.44
2023-05-09T12:10:21.699Z,22.82
2023-05-09T12:15:22.115Z,23.15
2023-05-09T12:20:21.485Z,22.97
2023-05-09T12:25:21.811Z,23.16
2023-05-09T12:30:21.535Z,23.06
2023-05-09T12:35:21.464Z,22.89
2023-05-09T12:40:21.367Z,22.79
2023-05-09T12:45:21.358Z,22.70
2023-05-09T12:50:21.297Z,20.38
2023-05-09T12:55:21.276Z,20.73
2023-05-09T13:00:21.424Z,20.05
2023-05-09T13:05:21.211Z,19.70
2023-05-09T13:10:21.308Z,20.19
2023-05-09T13:15:21.188Z,20.05
2023-05-09T13:20:21.162Z,19.79
2023-05-09T13:25:21.119Z,19.72
2023-05-09T13:30:21.231Z,20.17
2023-05-09T13:35:21.108Z,19.92
2023-05-09T13:40:21.081Z,19.98
2023-05-09T13:45:20.982Z,20.25
2023-05-09T13:50:20.941Z,19.87
2023-05-09T13:55:20.909Z,20.34
2023-05-09T14:00:21.552Z,20.34
2023-05-09T14:05:20.888Z,20.22
2023-05-09T14:10:21.161Z,20.30
2023-05-09T14:15:20.801Z,20.02
2023-05-09T14:20:20.752Z,20.31
2023-05-09T14:25:20.749Z,20.20
2023-05-09T14:30:20.717Z,20.31
2023-05-09T14:35:20.679Z,20.58
2023-05-09T14:40:20.692Z,20.26
2023-05-09T14:45:20.762Z,20.33
2023-05-09T14:50:20.695Z,20.40
2023-05-09T14:55:20.586Z,20.48
2023-05-09T15:00:22.280Z,20.41
2023-05-09T15:05:20.663Z,20.38
2023-05-09T15:10:20.451Z,20.42
2023-05-09T15:15:20.473Z,20.35
2023-05-09T15:20:20.428Z,20.31
2023-05-09T15:25:20.366Z,20.25
2023-05-09T15:30:20.356Z,20.22
2023-05-09T15:35:20.347Z,20.25
2023-05-09T15:40:20.266Z,20.08
2023-05-09T15:45:20.309Z,20.20
2023-05-09T15:50:20.217Z,20.23
2023-05-09T15:55:20.209Z,20.19
2023-05-09T16:00:20.203Z,20.00
2023-05-09T16:05:20.149Z,19.97
2023-05-09T16:10:20.195Z,20.22
2023-05-09T16:15:20.304Z,19.95
2023-05-09T16:20:20.062Z,19.92
2023-05-09T16:25:19.972Z,19.71
2023-05-09T16:30:19.955Z,19.71
2023-05-09T16:35:19.960Z,19.80
2023-05-09T16:40:19.890Z,19.67
2023-05-09T16:45:19.864Z,19.64
2023-05-09T16:50:19.836Z,19.55
2023-05-09T16:55:19.814Z,19.49
2023-05-09T17:00:19.792Z,19.50
2023-05-09T17:05:19.778Z,19.46
2023-05-09T17:10:19.752Z,19.31
2023-05-09T17:15:19.750Z,19.25
2023-05-09T17:20:19.720Z,19.16
2023-05-09T17:25:19.708Z,18.97
2023-05-09T17:30:22.112Z,18.64
2023-05-09T17:35:19.762Z,18.41
2023-05-09T17:40:19.590Z,18.14
2023-05-09T17:45:19.584Z,18.02
2023-05-09T17:50:19.555Z,17.99
2023-05-09T17:55:19.578Z,17.86
2023-05-09T18:00:19.494Z,17.70
2023-05-09T18:05:19.475Z,17.53
2023-05-09T18:10:19.463Z,17.39
2023-05-09T18:15:19.452Z,17.40
2023-05-09T18:20:19.444Z,17.38
2023-05-09T18:25:19.561Z,17.39
2023-05-09T18:30:20.036Z,17.27
2023-05-09T18:35:19.332Z,17.14
2023-05-09T18:40:19.366Z,17.06
2023-05-09T18:45:19.341Z,16.91
2023-05-09T18:50:19.260Z,16.77
2023-05-09T18:55:19.174Z,16.60
2023-05-09T19:00:19.153Z,16.54
2023-05-09T19:05:19.068Z,16.42
2023-05-09T19:10:19.083Z,16.32
2023-05-09T19:15:19.057Z,16.26
2023-05-09T19:20:18.997Z,16.22
2023-05-09T19:25:18.957Z,16.07
2023-05-09T19:30:18.946Z,15.98
2023-05-09T19:35:18.913Z,15.93
2023-05-09T19:40:18.864Z,15.84
2023-05-09T19:45:18.874Z,15.70
2023-05-09T19:50:18.830Z,15.52
2023-05-09T19:55:18.797Z,15.40
2023-05-09T20:00:18.912Z,15.35
2023-05-09T20:05:18.735Z,15.19
2023-05-09T20:10:18.712Z,15.04
2023-05-09T20:15:18.754Z,14.91
2023-05-09T20:20:18.872Z,14.78
2023-05-09T20:25:18.642Z,14.61
2023-05-09T20:30:18.566Z,14.36
2023-05-09T20:35:18.545Z,14.23
2023-05-09T20:40:18.661Z,14.05
2023-05-09T20:45:18.464Z,13.94
2023-05-09T20:50:18.779Z,13.83
2023-05-09T20:55:18.455Z,13.72
2023-05-09T21:00:18.554Z,13.59
2023-05-09T21:05:18.402Z,13.47
2023-05-09T21:10:18.516Z,13.41
2023-05-09T21:15:18.320Z,13.32
2023-05-09T21:20:18.474Z,13.24
2023-05-09T21:25:18.243Z,13.14
2023-05-09T21:30:18.301Z,13.12
2023-05-09T21:35:18.190Z,13.06
2023-05-09T21:40:18.262Z,13.03
2023-05-09T21:45:18.119Z,12.95
2023-05-09T21:50:18.344Z,12.88
2023-05-09T21:55:18.060Z,12.87
2023-05-09T22:00:18.206Z,12.80
2023-05-09T22:05:18.001Z,12.70
2023-05-09T22:10:18.159Z,12.66
2023-05-09T22:15:17.964Z,12.54
2023-05-09T22:20:18.156Z,12.46
2023-05-09T22:25:17.914Z,12.40
2023-05-09T22:30:18.139Z,12.34
2023-05-09T22:35:17.869Z,12.26
2023-05-09T22:40:18.012Z,12.18
2023-05-09T22:45:17.842Z,12.18
2023-05-09T22:50:18.096Z,12.11
2023-05-09T22:55:17.728Z,12.03
2023-05-09T23:00:17.929Z,11.96
2023-05-09T23:05:17.651Z,11.85
2023-05-09T23:10:17.949Z,11.77
2023-05-09T23:15:17.596Z,11.72
2023-05-09T23:20:17.827Z,11.70
2023-05-09T23:25:17.530Z,11.72
2023-05-09T23:30:17.776Z,11.67
2023-05-09T23:35:17.475Z,11.62
2023-05-09T23:40:17.667Z,11.57
2023-05-09T23:45:17.464Z,11.51
2023-05-09T23:50:17.708Z,11.41
2023-05-09T23:55:17.437Z,11.36
